Time;durP1;ratioP1;P1;durP2;ratioP2;P2;SDS_P1;SDS_P2;PMS_P1;PMS_P2;Temp;Humidity;BMP_temperature;BMP_pressure;BME280_temperature;BME280_humidity;BME280_pressure;Samples;Min_cycle;Max_cycle;Signal;HPM_P1;HPM_P2
2022/11/14 00:02:20;;;;;;;21.15;17.27;;;8.30;99.90;;;;;;4994780;28;20626;-82
2022/11/14 00:04:46;;;;;;;23.70;18.27;;;8.20;99.90;;;;;;4993425;28;20237;-81
2022/11/14 00:07:12;;;;;;;28.15;18.73;;;8.00;99.90;;;;;;4977099;28;20169;-81
2022/11/14 00:09:39;;;;;;;29.00;19.15;;;8.10;99.90;;;;;;4994503;28;20241;-79
2022/11/14 00:12:05;;;;;;;29.77;18.08;;;8.00;99.90;;;;;;4993265;28;20173;-80
2022/11/14 00:14:31;;;;;;;31.27;17.50;;;8.00;99.90;;;;;;4994158;28;20875;-81
2022/11/14 00:16:56;;;;;;;26.42;18.23;;;8.20;99.90;;;;;;4994260;28;20196;-80
2022/11/14 00:19:22;;;;;;;24.00;17.52;;;8.20;99.90;;;;;;4993963;28;20190;-80
2022/11/14 00:21:47;;;;;;;27.70;17.70;;;8.30;99.90;;;;;;4993871;28;20186;-80
2022/11/14 00:24:13;;;;;;;23.35;16.52;;;8.40;99.90;;;;;;4993055;28;20311;-81
2022/11/14 00:26:38;;;;;;;24.77;16.92;;;8.30;99.90;;;;;;4993103;28;20188;-80
2022/11/14 00:29:04;;;;;;;25.23;18.33;;;8.30;99.90;;;;;;4993478;28;20192;-80
2022/11/14 00:31:30;;;;;;;26.73;18.38;;;8.30;99.90;;;;;;4993976;28;20173;-80
2022/11/14 00:33:55;;;;;;;31.33;17.80;;;8.20;99.90;;;;;;4993824;28;20192;-80
2022/11/14 00:36:21;;;;;;;23.50;16.85;;;8.20;99.90;;;;;;4992838;28;20569;-80
2022/11/14 00:38:46;;;;;;;22.60;16.90;;;8.10;99.90;;;;;;4994210;28;20199;-81
2022/11/14 00:41:12;;;;;;;24.05;15.57;;;8.00;99.90;;;;;;4994239;28;20172;-79
2022/11/14 00:43:37;;;;;;;22.88;16.95;;;7.80;99.90;;;;;;4992777;28;20562;-80
2022/11/14 00:46:03;;;;;;;21.50;15.98;;;7.90;99.90;;;;;;4994195;28;20166;-84
2022/11/14 00:48:29;;;;;;;18.75;14.75;;;7.90;99.90;;;;;;4994082;28;20275;-84
2022/11/14 00:50:54;;;;;;;26.15;16.95;;;7.90;99.90;;;;;;4994058;28;20181;-82
2022/11/14 00:53:23;;;;;;;20.10;16.33;;;8.00;99.90;;;;;;4993954;28;20201;-80
2022/11/14 00:55:48;;;;;;;23.27;16.08;;;8.00;99.90;;;;;;4994041;28;20176;-80
2022/11/14 00:58:14;;;;;;;22.20;16.98;;;8.10;99.90;;;;;;4993755;28;20560;-82
2022/11/14 01:00:39;;;;;;;20.10;16.00;;;7.90;99.90;;;;;;4993264;28;20611;-84
2022/11/14 01:03:05;;;;;;;30.88;17.00;;;7.80;99.90;;;;;;4993322;28;20205;-81
2022/11/14 01:05:31;;;;;;;24.88;18.42;;;7.90;99.90;;;;;;4993355;28;20169;-81
2022/11/14 01:07:56;;;;;;;20.55;15.95;;;7.80;99.90;;;;;;4992559;28;20206;-80
2022/11/14 01:10:22;;;;;;;27.33;17.40;;;7.70;99.90;;;;;;4993687;28;20165;-82
2022/11/14 01:12:50;;;;;;;25.30;16.52;;;7.80;99.90;;;;;;4993537;28;20173;-81
2022/11/14 01:15:16;;;;;;;25.70;16.25;;;7.70;99.90;;;;;;4993636;28;20173;-79
2022/11/14 01:17:41;;;;;;;22.55;15.80;;;7.60;99.90;;;;;;4993497;28;20187;-80
2022/11/14 01:20:07;;;;;;;22.30;16.10;;;7.60;99.90;;;;;;4976133;28;20181;-82
2022/11/14 01:22:33;;;;;;;22.90;16.15;;;7.60;99.90;;;;;;4993357;28;20161;-82
2022/11/14 01:24:58;;;;;;;27.83;15.77;;;7.60;99.90;;;;;;4992141;28;20271;-82
2022/11/14 01:27:24;;;;;;;25.92;16.23;;;7.70;99.90;;;;;;4993167;28;20180;-81
2022/11/14 01:29:50;;;;;;;23.38;16.25;;;7.60;99.90;;;;;;4975788;28;20697;-82
2022/11/14 01:32:15;;;;;;;21.95;17.13;;;7.50;99.90;;;;;;4992920;28;20161;-79
2022/11/14 01:34:41;;;;;;;21.50;15.90;;;7.50;99.90;;;;;;4975317;28;20216;-82
2022/11/14 01:37:07;;;;;;;21.73;16.50;;;7.40;99.90;;;;;;4992753;28;20197;-80
2022/11/14 01:39:32;;;;;;;20.95;15.75;;;7.40;99.90;;;;;;4973524;28;20287;-79
2022/11/14 01:41:58;;;;;;;23.55;17.05;;;7.20;99.90;;;;;;4991401;28;20196;-82
2022/11/14 01:44:44;;;;;;;24.50;16.80;;;7.30;99.90;;;;;;4991372;28;20215;-82
2022/11/14 01:47:11;;;;;;;35.45;18.02;;;7.40;99.90;;;;;;4993561;28;20216;-80
2022/11/14 01:49:46;;;;;;;26.65;17.15;;;7.50;99.90;;;;;;4984073;28;20224;-82
2022/11/14 01:52:32;;;;;;;20.98;15.43;;;7.30;99.90;;;;;;5011437;28;20244;-80
2022/11/14 01:55:05;;;;;;;25.20;16.95;;;7.20;99.90;;;;;;4996063;28;20220;-81
2022/11/14 01:57:42;;;;;;;22.08;16.00;;;7.30;99.90;;;;;;4994417;28;20173;-82
2022/11/14 02:00:12;;;;;;;24.90;15.68;;;7.40;99.90;;;;;;4993406;28;20226;-80
2022/11/14 02:02:38;;;;;;;24.33;16.27;;;7.40;99.90;;;;;;4975528;28;20600;-80
2022/11/14 02:05:08;;;;;;;23.38;16.70;;;7.40;99.90;;;;;;4993076;28;20669;-83
2022/11/14 02:07:37;;;;;;;25.70;16.77;;;7.40;99.90;;;;;;4991866;28;20168;-82
2022/11/14 02:10:07;;;;;;;17.70;14.40;;;7.30;99.90;;;;;;4991570;28;20204;-81
2022/11/14 02:12:33;;;;;;;20.45;16.50;;;7.40;99.90;;;;;;4992790;28;20235;-82
2022/11/14 02:14:59;;;;;;;18.80;14.85;;;7.20;99.90;;;;;;4993083;28;20173;-83
2022/11/14 02:17:25;;;;;;;26.88;16.42;;;7.20;99.90;;;;;;4993185;28;20171;-80
2022/11/14 02:20:04;;;;;;;22.33;15.57;;;7.10;99.90;;;;;;4993115;28;20252;-81
2022/11/14 02:22:30;;;;;;;21.20;15.40;;;7.20;99.90;;;;;;4993049;28;20618;-81
2022/11/14 02:24:55;;;;;;;19.73;15.25;;;7.30;99.90;;;;;;4992945;28;20192;-83
2022/11/14 02:27:21;;;;;;;19.27;14.82;;;7.30;99.90;;;;;;4993061;28;20580;-80
2022/11/14 02:29:47;;;;;;;23.60;15.88;;;7.30;99.90;;;;;;4993177;28;20189;-83
2022/11/14 02:32:12;;;;;;;21.80;15.70;;;7.20;99.90;;;;;;4975610;28;20173;-81
2022/11/14 02:34:38;;;;;;;23.30;15.85;;;7.00;99.90;;;;;;4991854;28;20177;-82
2022/11/14 02:37:04;;;;;;;22.05;15.82;;;6.90;99.90;;;;;;4993098;28;20704;-82
2022/11/14 02:39:30;;;;;;;15.98;13.48;;;6.80;99.90;;;;;;4991500;28;20305;-80
2022/11/14 02:41:55;;;;;;;19.80;15.27;;;6.90;99.90;;;;;;4992827;28;20197;-80
2022/11/14 02:44:21;;;;;;;18.30;15.55;;;7.00;99.90;;;;;;4992701;28;20201;-81
2022/11/14 02:46:46;;;;;;;24.40;15.38;;;6.90;99.90;;;;;;4975138;28;20173;-81
2022/11/14 02:49:12;;;;;;;37.72;16.50;;;6.90;99.90;;;;;;4992549;28;20213;-79
2022/11/14 02:51:38;;;;;;;27.40;14.98;;;6.90;99.90;;;;;;4992671;28;20813;-80
2022/11/14 02:54:03;;;;;;;33.13;16.85;;;6.90;99.90;;;;;;4995588;28;20169;-79
2022/11/14 02:56:29;;;;;;;29.00;15.77;;;7.10;99.90;;;;;;4978792;28;20177;-80
2022/11/14 02:58:54;;;;;;;30.90;15.50;;;7.10;99.90;;;;;;4996153;28;20772;-80
2022/11/14 03:01:20;;;;;;;28.13;16.60;;;6.90;99.90;;;;;;4996253;28;20176;-80
2022/11/14 03:03:46;;;;;;;22.70;15.52;;;6.90;99.90;;;;;;4996044;28;20279;-82
2022/11/14 03:06:11;;;;;;;23.92;15.20;;;6.90;99.90;;;;;;4995962;28;20248;-82
2022/11/14 03:08:37;;;;;;;27.60;15.95;;;6.80;99.90;;;;;;4996030;28;20195;-79
2022/11/14 03:11:04;;;;;;;25.00;14.30;;;6.90;99.90;;;;;;4994499;28;20176;-79
2022/11/14 03:13:30;;;;;;;23.08;14.30;;;6.90;99.90;;;;;;4995651;28;20180;-80
2022/11/14 03:15:56;;;;;;;23.33;14.82;;;7.00;99.90;;;;;;4995562;28;20170;-80
2022/11/14 03:18:21;;;;;;;23.02;14.88;;;7.00;99.90;;;;;;4994030;28;20203;-80
2022/11/14 03:20:47;;;;;;;23.20;15.48;;;7.00;99.90;;;;;;4994065;28;20575;-80
2022/11/14 03:23:13;;;;;;;21.80;15.38;;;7.10;99.90;;;;;;4994278;28;20287;-80
2022/11/14 03:25:38;;;;;;;17.20;13.82;;;6.90;99.90;;;;;;4995669;28;20181;-81
2022/11/14 03:28:04;;;;;;;22.70;15.02;;;6.90;99.90;;;;;;4994176;28;20197;-81
2022/11/14 03:30:30;;;;;;;24.27;15.35;;;6.70;99.90;;;;;;4994354;28;20173;-80
2022/11/14 03:32:56;;;;;;;20.02;14.57;;;6.70;99.90;;;;;;4977693;28;20176;-79
2022/11/14 03:35:22;;;;;;;18.60;14.05;;;6.80;99.90;;;;;;4993754;28;20192;-81
2022/11/14 03:37:47;;;;;;;24.38;14.35;;;6.80;99.90;;;;;;4994832;28;20626;-81
2022/11/14 03:40:13;;;;;;;21.77;15.15;;;6.70;99.90;;;;;;4994906;28;20220;-80
2022/11/14 03:42:39;;;;;;;18.58;14.70;;;6.50;99.90;;;;;;4993872;28;20178;-80
2022/11/14 03:45:05;;;;;;;21.05;14.93;;;6.60;99.90;;;;;;4995220;28;20173;-81
2022/11/14 03:47:30;;;;;;;20.73;14.65;;;6.60;99.90;;;;;;4995285;28;20174;-80
2022/11/14 03:49:56;;;;;;;19.05;14.25;;;6.70;99.90;;;;;;4995001;28;20185;-81
2022/11/14 03:52:21;;;;;;;22.08;15.40;;;6.70;99.90;;;;;;4995192;28;20185;-80
2022/11/14 03:54:47;;;;;;;19.83;14.57;;;6.90;99.90;;;;;;4995343;28;20170;-82
2022/11/14 03:57:13;;;;;;;19.15;14.10;;;6.90;99.90;;;;;;4995213;28;20173;-79
2022/11/14 03:59:38;;;;;;;22.73;15.15;;;6.80;99.90;;;;;;4993835;28;20192;-79
2022/11/14 04:02:04;;;;;;;23.65;14.77;;;6.90;99.90;;;;;;4977695;28;20189;-79
2022/11/14 04:04:29;;;;;;;20.90;14.65;;;7.10;99.90;;;;;;4994265;28;20405;-79
2022/11/14 04:06:55;;;;;;;27.98;15.65;;;6.90;99.90;;;;;;4995148;28;20511;-78
2022/11/14 04:09:20;;;;;;;24.58;14.88;;;6.90;99.90;;;;;;4994397;28;20239;-81
2022/11/14 04:11:46;;;;;;;24.08;15.77;;;6.90;99.90;;;;;;4977720;28;20180;-83
2022/11/14 04:14:12;;;;;;;20.55;14.15;;;6.80;99.90;;;;;;4977476;28;20177;-82
2022/11/14 04:16:37;;;;;;;23.48;14.88;;;6.90;99.90;;;;;;4995034;28;20165;-85
2022/11/14 04:19:03;;;;;;;17.85;14.45;;;6.90;99.90;;;;;;4995551;28;20216;-82
2022/11/14 04:21:28;;;;;;;23.60;14.68;;;6.80;99.90;;;;;;5000796;28;20208;-83
2022/11/14 04:23:54;;;;;;;20.02;14.20;;;6.90;99.90;;;;;;5015009;28;20200;-81
2022/11/14 04:26:20;;;;;;;17.13;13.38;;;6.90;99.90;;;;;;5008594;28;20236;-80
2022/11/14 04:28:45;;;;;;;18.98;13.90;;;6.70;99.90;;;;;;4976954;28;20201;-83
2022/11/14 04:31:11;;;;;;;22.00;14.65;;;6.60;99.90;;;;;;4976775;28;20644;-81
2022/11/14 04:33:36;;;;;;;22.85;14.57;;;6.40;99.90;;;;;;4994236;28;20646;-83
2022/11/14 04:36:02;;;;;;;23.42;13.88;;;6.50;99.90;;;;;;4994445;28;20303;-81
2022/11/14 04:38:28;;;;;;;17.52;13.85;;;6.40;99.90;;;;;;4994096;28;20208;-82
2022/11/14 04:40:53;;;;;;;22.02;14.85;;;6.30;99.90;;;;;;4993692;28;20166;-81
2022/11/14 04:43:20;;;;;;;17.30;14.45;;;6.40;99.90;;;;;;4994018;28;20256;-82
2022/11/14 04:45:46;;;;;;;23.00;14.10;;;6.50;99.90;;;;;;4993453;28;20161;-83
2022/11/14 04:48:12;;;;;;;24.55;13.85;;;6.40;99.90;;;;;;4993471;28;20197;-80
2022/11/14 04:50:38;;;;;;;25.95;15.68;;;6.60;99.90;;;;;;4994277;28;20228;-82
2022/11/14 04:53:04;;;;;;;17.88;14.45;;;6.70;99.90;;;;;;4976736;28;20201;-80
2022/11/14 04:55:30;;;;;;;25.92;14.63;;;6.70;99.90;;;;;;4994090;28;20260;-81
2022/11/14 04:57:57;;;;;;;19.35;14.82;;;6.60;99.90;;;;;;4994028;28;20587;-84
2022/11/14 05:00:23;;;;;;;19.13;14.52;;;6.60;99.90;;;;;;4976512;28;20626;-83
2022/11/14 05:02:49;;;;;;;24.30;14.18;;;6.50;99.90;;;;;;4994007;28;20197;-83
2022/11/14 05:05:15;;;;;;;20.20;15.13;;;6.40;99.90;;;;;;4993706;28;20176;-82
2022/11/14 05:07:40;;;;;;;20.60;14.02;;;6.40;99.90;;;;;;4993918;28;20200;-83
2022/11/14 05:10:07;;;;;;;26.15;14.70;;;6.50;99.90;;;;;;4993915;28;20178;-83
2022/11/14 05:12:32;;;;;;;22.23;15.95;;;6.50;99.90;;;;;;4976288;28;20565;-82
2022/11/14 05:14:58;;;;;;;24.27;16.20;;;6.50;99.90;;;;;;4992966;28;20162;-83
2022/11/14 05:17:24;;;;;;;29.83;13.65;;;6.50;99.90;;;;;;4993180;28;20523;-84
2022/11/14 05:19:49;;;;;;;23.30;15.05;;;6.50;99.90;;;;;;4975958;28;20192;-80
2022/11/14 05:22:15;;;;;;;19.33;14.68;;;6.50;99.90;;;;;;4979666;28;20260;-84
2022/11/14 05:24:40;;;;;;;20.45;14.65;;;6.30;99.90;;;;;;4974836;28;20674;-81
2022/11/14 05:27:06;;;;;;;23.45;14.13;;;6.40;99.90;;;;;;4973907;28;20164;-81
2022/11/14 05:29:32;;;;;;;18.58;13.68;;;6.30;99.90;;;;;;4973541;28;20193;-83
2022/11/14 05:31:57;;;;;;;18.38;13.00;;;6.30;99.90;;;;;;4974261;28;20177;-80
2022/11/14 05:34:23;;;;;;;21.70;13.27;;;6.30;99.90;;;;;;4973683;28;20181;-82
2022/11/14 05:36:49;;;;;;;14.65;12.68;;;6.30;99.90;;;;;;4973791;28;20166;-80
2022/11/14 05:39:15;;;;;;;25.30;14.88;;;6.40;99.90;;;;;;4973061;28;20684;-79
2022/11/14 05:41:41;;;;;;;18.80;13.35;;;6.50;99.90;;;;;;4973613;28;20175;-79
2022/11/14 05:44:07;;;;;;;14.73;13.05;;;6.50;99.90;;;;;;4973295;28;20296;-80
2022/11/14 05:46:32;;;;;;;14.77;13.18;;;6.30;99.90;;;;;;4955917;28;20224;-80
2022/11/14 05:48:58;;;;;;;19.20;14.23;;;6.40;99.90;;;;;;4973169;28;20268;-80
2022/11/14 05:51:23;;;;;;;23.30;14.98;;;6.60;99.90;;;;;;4973246;28;20238;-80
2022/11/14 05:53:49;;;;;;;24.85;13.85;;;6.30;99.90;;;;;;4973648;28;20176;-83
2022/11/14 05:56:14;;;;;;;24.42;16.73;;;6.30;99.90;;;;;;4973927;28;20241;-83
2022/11/14 05:58:40;;;;;;;18.63;14.13;;;6.40;99.90;;;;;;4973455;28;20362;-83
2022/11/14 06:01:11;;;;;;;19.08;13.77;;;6.40;99.90;;;;;;4973668;28;20697;-81
2022/11/14 06:03:39;;;;;;;24.27;14.20;;;6.40;99.90;;;;;;4973521;28;20201;-83
2022/11/14 06:06:06;;;;;;;20.45;13.55;;;6.40;99.90;;;;;;4973644;28;20204;-82
2022/11/14 06:08:33;;;;;;;29.27;14.23;;;6.40;99.90;;;;;;4973034;28;20196;-83
2022/11/14 06:11:06;;;;;;;18.52;13.07;;;6.40;99.90;;;;;;4956398;28;20166;-83
2022/11/14 06:13:32;;;;;;;18.17;13.10;;;6.30;99.90;;;;;;4971844;28;20195;-82
2022/11/14 06:15:59;;;;;;;18.73;13.43;;;6.00;99.90;;;;;;4973904;28;20260;-83
2022/11/14 06:18:25;;;;;;;19.77;14.07;;;6.20;99.90;;;;;;4956186;28;20598;-83
2022/11/14 06:20:51;;;;;;;16.60;12.63;;;6.10;99.90;;;;;;4972371;28;20162;-82
2022/11/14 06:23:16;;;;;;;20.23;13.70;;;6.00;99.90;;;;;;4972221;28;20217;-82
2022/11/14 06:25:42;;;;;;;18.23;12.93;;;6.10;99.90;;;;;;4973497;28;20593;-83
2022/11/14 06:28:08;;;;;;;20.08;13.60;;;6.20;99.90;;;;;;4974881;28;20198;-82
2022/11/14 06:30:33;;;;;;;20.30;13.32;;;6.20;99.90;;;;;;4977414;28;20630;-84
2022/11/14 06:32:59;;;;;;;18.08;12.77;;;6.10;99.90;;;;;;4959868;28;20174;-83
2022/11/14 06:35:26;;;;;;;17.08;13.25;;;6.00;99.90;;;;;;4976541;28;20174;-82
2022/11/14 06:37:51;;;;;;;20.58;12.32;;;6.00;99.90;;;;;;4959708;28;20178;-83
2022/11/14 06:40:17;;;;;;;19.50;12.88;;;6.10;99.90;;;;;;4959374;28;20172;-81
2022/11/14 06:42:42;;;;;;;25.88;13.40;;;6.30;99.90;;;;;;4978631;28;20166;-81
2022/11/14 06:45:08;;;;;;;23.42;14.45;;;6.30;99.90;;;;;;4977359;28;20222;-84
2022/11/14 06:47:34;;;;;;;19.13;13.40;;;6.50;99.90;;;;;;4977003;28;20158;-82
2022/11/14 06:49:59;;;;;;;19.88;13.65;;;6.50;99.90;;;;;;4980624;28;20189;-83
2022/11/14 06:52:26;;;;;;;19.83;13.00;;;6.50;99.90;;;;;;4964894;28;20256;-82
2022/11/14 06:54:51;;;;;;;18.50;12.55;;;6.20;99.90;;;;;;4986560;28;20185;-81
2022/11/14 06:57:17;;;;;;;18.80;12.73;;;6.20;99.90;;;;;;4976857;28;20169;-82
2022/11/14 06:59:43;;;;;;;24.30;13.18;;;6.30;99.90;;;;;;4976842;28;20182;-81
2022/11/14 07:02:12;;;;;;;18.13;12.93;;;6.30;99.90;;;;;;4976214;28;20171;-80
2022/11/14 07:04:38;;;;;;;19.52;12.20;;;6.30;99.90;;;;;;4976585;28;20300;-81
2022/11/14 07:07:03;;;;;;;19.85;13.05;;;6.30;99.90;;;;;;4976731;28;20170;-81
2022/11/14 07:09:29;;;;;;;18.50;13.13;;;6.40;99.90;;;;;;4959213;28;20181;-81
2022/11/14 07:11:55;;;;;;;19.73;12.60;;;6.40;99.90;;;;;;4976282;28;20201;-81
2022/11/14 07:14:20;;;;;;;16.50;12.07;;;6.60;99.90;;;;;;4976062;28;20174;-80
2022/11/14 07:16:46;;;;;;;17.33;11.85;;;6.70;99.90;;;;;;4975505;28;20653;-81
2022/11/14 07:19:12;;;;;;;25.40;12.50;;;6.60;99.90;;;;;;4975539;28;20196;-80
2022/11/14 07:21:38;;;;;;;21.13;13.07;;;6.70;99.90;;;;;;4975894;28;20252;-80
2022/11/14 07:24:04;;;;;;;15.52;11.65;;;6.60;99.90;;;;;;4975570;28;20241;-80
2022/11/14 07:26:29;;;;;;;16.90;11.93;;;6.60;99.90;;;;;;4958131;28;20189;-83
2022/11/14 07:28:55;;;;;;;16.33;11.50;;;6.80;99.90;;;;;;4975715;28;20273;-82
2022/11/14 07:31:21;;;;;;;15.02;11.88;;;6.90;99.90;;;;;;4975856;28;20248;-81
2022/11/14 07:33:47;;;;;;;20.30;12.60;;;6.90;99.90;;;;;;4976019;28;20249;-81
2022/11/14 07:36:14;;;;;;;15.40;12.80;;;6.70;99.90;;;;;;4975626;28;20162;-80
2022/11/14 07:38:40;;;;;;;19.92;13.52;;;6.80;99.90;;;;;;4975410;28;20202;-81
2022/11/14 07:41:09;;;;;;;21.65;13.13;;;6.70;99.90;;;;;;4976607;28;20256;-80
2022/11/14 07:43:34;;;;;;;19.98;12.00;;;6.80;99.90;;;;;;4975580;28;20209;-80
2022/11/14 07:46:09;;;;;;;16.92;11.80;;;7.00;99.90;;;;;;4942814;28;20657;-83
2022/11/14 07:48:35;;;;;;;16.92;11.63;;;7.10;99.90;;;;;;4975242;28;20733;-81
2022/11/14 07:51:06;;;;;;;18.23;11.23;;;7.20;99.90;;;;;;4958082;28;20268;-82
2022/11/14 07:53:36;;;;;;;21.52;12.10;;;7.10;99.90;;;;;;4965001;28;20185;-81
2022/11/14 07:56:05;;;;;;;15.32;11.20;;;7.10;99.90;;;;;;4995128;28;20175;-82
2022/11/14 07:58:30;;;;;;;16.67;12.07;;;7.30;99.90;;;;;;4994523;28;20200;-81
2022/11/14 08:01:00;;;;;;;18.60;12.23;;;7.30;99.90;;;;;;4995391;28;20169;-82
2022/11/14 08:03:25;;;;;;;20.48;11.45;;;7.40;99.90;;;;;;4994556;28;20205;-81
2022/11/14 08:05:51;;;;;;;19.45;12.02;;;7.50;99.90;;;;;;4994711;28;20180;-81
2022/11/14 08:08:16;;;;;;;20.40;10.63;;;7.50;99.90;;;;;;4994287;28;20197;-80
2022/11/14 08:10:42;;;;;;;17.65;11.65;;;7.60;99.90;;;;;;4976908;28;20169;-81
2022/11/14 08:13:09;;;;;;;20.17;11.23;;;7.60;99.90;;;;;;4994535;28;20248;-80
2022/11/14 08:15:35;;;;;;;20.02;10.52;;;7.70;99.90;;;;;;4994622;28;20168;-80
2022/11/14 08:18:01;;;;;;;13.85;9.35;;;7.60;99.90;;;;;;4976578;28;20284;-79
2022/11/14 08:20:27;;;;;;;21.48;10.68;;;7.80;99.90;;;;;;4993962;28;20179;-80
2022/11/14 08:22:59;;;;;;;16.90;9.77;;;7.80;99.90;;;;;;4994052;28;20673;-80
2022/11/14 08:25:25;;;;;;;12.05;10.02;;;7.90;99.90;;;;;;4994226;28;20181;-81
2022/11/14 08:27:52;;;;;;;18.27;11.05;;;8.00;99.90;;;;;;4976758;28;20177;-80
2022/11/14 08:30:18;;;;;;;17.60;10.52;;;7.80;99.90;;;;;;4967289;28;20177;-80
2022/11/14 08:32:43;;;;;;;17.40;9.52;;;7.90;99.90;;;;;;4974792;28;20273;-84
2022/11/14 08:35:09;;;;;;;16.50;9.82;;;8.10;99.90;;;;;;4975460;28;20684;-81
2022/11/14 08:37:35;;;;;;;14.35;10.60;;;8.00;99.90;;;;;;4967573;28;20185;-81
2022/11/14 08:40:00;;;;;;;14.15;10.30;;;8.10;99.90;;;;;;4977790;28;20205;-80
2022/11/14 08:42:26;;;;;;;12.73;10.13;;;8.20;99.90;;;;;;4993312;28;20195;-81
2022/11/14 08:44:51;;;;;;;15.98;9.88;;;8.30;99.90;;;;;;4979086;28;20209;-80
2022/11/14 08:47:20;;;;;;;16.15;10.07;;;8.30;99.90;;;;;;4965972;28;20611;-80
2022/11/14 08:49:45;;;;;;;18.35;10.02;;;8.40;99.90;;;;;;4972217;28;20193;-81
2022/11/14 08:52:11;;;;;;;11.75;9.73;;;8.50;99.90;;;;;;4982773;28;20232;-79
2022/11/14 08:54:36;;;;;;;13.85;9.52;;;8.70;99.90;;;;;;4984644;28;20177;-82
2022/11/14 08:57:03;;;;;;;19.17;9.95;;;8.70;99.90;;;;;;4988844;28;20188;-80
2022/11/14 08:59:30;;;;;;;21.90;10.60;;;8.60;99.90;;;;;;4981664;28;20377;-81
2022/11/14 09:01:55;;;;;;;17.00;9.77;;;8.80;99.90;;;;;;4983343;28;20184;-80
2022/11/14 09:04:21;;;;;;;15.38;10.57;;;9.00;99.90;;;;;;4994987;28;20213;-80
2022/11/14 09:06:46;;;;;;;13.00;9.75;;;8.80;99.90;;;;;;4977358;28;20169;-80
2022/11/14 09:09:12;;;;;;;22.13;10.57;;;8.70;99.90;;;;;;4972896;28;20189;-80
2022/11/14 09:11:37;;;;;;;11.60;9.23;;;8.70;99.90;;;;;;4992663;28;20169;-81
2022/11/14 09:14:03;;;;;;;12.80;9.00;;;8.80;99.90;;;;;;4993155;28;20777;-81
2022/11/14 09:16:29;;;;;;;14.57;9.93;;;9.00;99.90;;;;;;4991374;28;20231;-82
2022/11/14 09:18:54;;;;;;;16.33;9.70;;;9.10;99.90;;;;;;4972706;28;20221;-81
2022/11/14 09:21:20;;;;;;;14.93;10.02;;;8.90;99.90;;;;;;4972149;28;20169;-83
2022/11/14 09:23:46;;;;;;;22.27;11.50;;;8.90;99.90;;;;;;4995563;28;20204;-81
2022/11/14 09:26:12;;;;;;;19.63;10.45;;;8.90;99.90;;;;;;5006306;28;20181;-81
2022/11/14 09:28:38;;;;;;;16.77;9.20;;;8.70;99.90;;;;;;4979412;28;20204;-83
2022/11/14 09:31:06;;;;;;;17.58;10.07;;;8.80;99.90;;;;;;4973611;28;20205;-83
2022/11/14 09:33:33;;;;;;;24.00;11.32;;;8.90;99.90;;;;;;4972708;28;20182;-83
2022/11/14 09:36:00;;;;;;;20.30;10.80;;;9.00;99.90;;;;;;4989123;28;20181;-81
2022/11/14 09:38:26;;;;;;;15.52;10.93;;;9.00;99.90;;;;;;4974280;28;20200;-81
2022/11/14 09:40:55;;;;;;;14.75;11.07;;;9.00;99.90;;;;;;4992284;28;20170;-84
2022/11/14 09:43:41;;;;;;;13.68;9.88;;;9.10;99.90;;;;;;4975846;28;20205;-84
2022/11/14 09:46:38;;;;;;;29.77;11.27;;;9.20;99.90;;;;;;4973362;28;20257;-83
2022/11/14 09:49:14;;;;;;;18.08;10.65;;;9.20;99.90;;;;;;4955161;28;20729;-82
2022/11/14 09:51:49;;;;;;;20.13;11.10;;;9.10;99.90;;;;;;4976414;28;20196;-82
2022/11/14 09:54:19;;;;;;;17.48;10.90;;;9.30;99.90;;;;;;4974932;28;20196;-82
2022/11/14 09:56:44;;;;;;;15.20;10.68;;;9.40;99.90;;;;;;4956362;28;20521;-84
2022/11/14 09:59:11;;;;;;;15.35;10.35;;;9.40;99.90;;;;;;4973887;28;20292;-86
2022/11/14 10:02:19;;;;;;;15.40;10.20;;;9.20;99.90;;;;;;4973801;28;20631;-85
2022/11/14 10:05:22;;;;;;;20.35;11.32;;;9.10;99.90;;;;;;4976998;28;20209;-82
2022/11/14 10:08:06;;;;;;;18.23;10.88;;;9.20;99.90;;;;;;4977350;28;20170;-84
2022/11/14 10:10:48;;;;;;;19.85;10.55;;;9.30;99.90;;;;;;4977151;28;20200;-83
2022/11/14 10:13:40;;;;;;;55.75;13.93;;;9.50;99.90;;;;;;4976108;28;20170;-84
2022/11/14 10:16:21;;;;;;;35.05;13.25;;;9.50;99.90;;;;;;4959311;28;20627;-83
2022/11/14 10:19:03;;;;;;;23.45;11.80;;;9.70;99.90;;;;;;4976859;28;20341;-82
2022/11/14 10:21:43;;;;;;;19.02;11.65;;;9.70;99.90;;;;;;4959789;28;20169;-81
2022/11/14 10:24:09;;;;;;;22.00;11.38;;;9.80;99.90;;;;;;4961289;28;20213;-81
2022/11/14 10:27:06;;;;;;;40.13;13.07;;;9.80;99.90;;;;;;4976568;28;20241;-84
2022/11/14 10:29:35;;;;;;;34.63;12.25;;;9.80;99.90;;;;;;4975045;28;20217;-86
2022/11/14 10:32:32;;;;;;;25.15;10.75;;;9.90;99.90;;;;;;4981284;28;20241;-85
2022/11/14 10:35:03;;;;;;;20.90;11.52;;;9.90;99.90;;;;;;4980354;28;20181;-86
2022/11/14 10:37:59;;;;;;;21.77;11.30;;;9.90;99.90;;;;;;4978845;28;20227;-84
2022/11/14 10:40:29;;;;;;;15.80;10.95;;;10.00;99.90;;;;;;4985135;28;20189;-81
2022/11/14 10:43:01;;;;;;;24.00;10.98;;;10.00;99.90;;;;;;4978679;28;20268;-80
2022/11/14 10:45:42;;;;;;;18.13;11.27;;;10.20;99.90;;;;;;4996303;28;20183;-81
2022/11/14 10:48:12;;;;;;;21.60;12.75;;;10.30;99.90;;;;;;5009206;28;20188;-82
2022/11/14 10:50:55;;;;;;;21.92;12.00;;;10.20;99.90;;;;;;4989462;28;20239;-80
2022/11/14 10:53:36;;;;;;;16.38;11.35;;;10.10;99.90;;;;;;5006127;28;20261;-83
2022/11/14 10:56:01;;;;;;;19.70;12.02;;;10.00;99.90;;;;;;4987876;28;20535;-83
2022/11/14 10:58:27;;;;;;;20.73;11.73;;;10.10;99.90;;;;;;4999778;28;20181;-82
2022/11/14 11:00:55;;;;;;;15.90;11.80;;;10.10;99.90;;;;;;5000361;28;20209;-81
2022/11/14 11:03:40;;;;;;;16.85;11.10;;;10.00;99.90;;;;;;4981650;28;20805;-85
2022/11/14 11:06:24;;;;;;;20.08;12.13;;;9.90;99.90;;;;;;4961885;28;20623;-84
2022/11/14 11:11:38;;;;;;;32.90;11.40;;;9.80;99.90;;;;;;4986759;28;20188;-82
2022/11/14 11:14:05;;;;;;;22.05;12.23;;;9.80;99.90;;;;;;4993603;28;20174;-82
2022/11/14 11:16:30;;;;;;;18.65;12.52;;;9.90;99.90;;;;;;4972200;28;20194;-82
2022/11/14 11:19:23;;;;;;;22.67;12.63;;;9.70;99.90;;;;;;4968938;28;20209;-84
2022/11/14 11:21:51;;;;;;;20.80;12.38;;;9.60;99.90;;;;;;4982114;28;20512;-80
2022/11/14 11:24:31;;;;;;;21.55;13.88;;;9.80;99.90;;;;;;4962935;28;20225;-82
2022/11/14 11:27:27;;;;;;;30.60;13.07;;;9.90;99.90;;;;;;4976170;28;20181;-82
2022/11/14 11:30:01;;;;;;;18.30;11.57;;;9.80;99.90;;;;;;4977606;28;20343;-80
2022/11/14 11:32:28;;;;;;;17.65;12.93;;;9.70;99.90;;;;;;4974920;28;20174;-83
2022/11/14 11:34:54;;;;;;;17.08;13.45;;;9.40;99.90;;;;;;4977398;28;20705;-78
2022/11/14 11:37:38;;;;;;;26.23;13.40;;;9.10;99.90;;;;;;4976184;28;20181;-78
2022/11/14 11:40:11;;;;;;;18.02;13.32;;;9.20;99.90;;;;;;4985095;28;20235;-79
2022/11/14 11:42:45;;;;;;;21.63;12.15;;;9.10;99.90;;;;;;4983143;28;20165;-78
2022/11/14 11:45:16;;;;;;;20.98;13.32;;;9.00;99.90;;;;;;4994794;28;20181;-83
2022/11/14 11:47:47;;;;;;;33.67;13.85;;;8.80;99.90;;;;;;4977056;28;20180;-79
2022/11/14 11:50:19;;;;;;;24.20;14.65;;;8.90;99.90;;;;;;4985785;28;20178;-78
2022/11/14 11:52:50;;;;;;;19.58;12.95;;;9.00;99.90;;;;;;4958086;28;20485;-79
2022/11/14 11:55:22;;;;;;;20.33;12.52;;;9.20;99.90;;;;;;4978605;28;20634;-79
2022/11/14 11:57:55;;;;;;;21.13;14.10;;;9.10;99.90;;;;;;4974419;28;20250;-79
2022/11/14 12:00:22;;;;;;;21.90;13.73;;;9.10;99.90;;;;;;5001121;28;20249;-79
2022/11/14 12:02:49;;;;;;;19.92;14.40;;;9.10;99.90;;;;;;4999402;28;20527;-80
2022/11/14 12:05:22;;;;;;;17.05;12.98;;;9.10;99.90;;;;;;4978314;28;20277;-81
2022/11/14 12:08:03;;;;;;;24.08;15.18;;;8.90;99.90;;;;;;4993142;28;20634;-81
2022/11/14 12:10:31;;;;;;;31.13;15.23;;;8.70;99.90;;;;;;4985402;28;20197;-83
2022/11/14 12:13:25;;;;;;;22.27;14.50;;;8.70;99.90;;;;;;4975011;28;20162;-79
2022/11/14 12:16:15;;;;;;;19.98;14.10;;;8.60;99.90;;;;;;4974678;28;20182;-80
2022/11/14 12:19:08;;;;;;;25.85;14.95;;;8.60;99.90;;;;;;4973963;28;20229;-80
2022/11/14 12:21:40;;;;;;;23.35;15.50;;;8.60;99.90;;;;;;4974308;28;20635;-80
2022/11/14 12:24:33;;;;;;;23.77;15.40;;;8.40;99.90;;;;;;4975657;28;20208;-79
2022/11/14 12:27:36;;;;;;;23.88;14.63;;;8.40;99.90;;;;;;4975002;28;20182;-80
2022/11/14 12:30:17;;;;;;;23.92;16.33;;;8.40;99.90;;;;;;4914786;28;20208;-83
2022/11/14 12:32:49;;;;;;;30.42;17.67;;;8.40;99.90;;;;;;4995127;28;20169;-83
2022/11/14 12:35:33;;;;;;;29.00;16.30;;;8.30;99.90;;;;;;4995070;28;20492;-83
2022/11/14 12:38:04;;;;;;;26.88;17.60;;;8.20;99.90;;;;;;4977142;28;20169;-86
2022/11/14 12:40:33;;;;;;;28.65;16.92;;;8.40;99.90;;;;;;4995146;28;20169;-82
2022/11/14 12:43:01;;;;;;;32.50;17.58;;;8.30;99.90;;;;;;4993191;28;20173;-80
2022/11/14 12:45:41;;;;;;;27.50;17.35;;;8.20;99.90;;;;;;4993884;28;20228;-80
2022/11/14 12:48:25;;;;;;;32.97;18.58;;;8.50;99.90;;;;;;4993694;28;20180;-80
2022/11/14 12:50:52;;;;;;;31.63;18.08;;;8.70;99.90;;;;;;4993852;28;20202;-81